Time;durP1;ratioP1;P1;durP2;ratioP2;P2;SDS_P1;SDS_P2;PMS_P1;PMS_P2;Temp;Humidity;BMP_temperature;BMP_pressure;BME280_temperature;BME280_humidity;BME280_pressure;Samples;Min_cycle;Max_cycle;Signal;HPM_P1;HPM_P2
2023/02/26 00:01:50;;;;;;;2.17;1.50;;;;;;;5.83;57.59;100892.19;5064825;27;97634;-71
2023/02/26 00:04:16;;;;;;;3.90;1.77;;;;;;;5.83;57.38;100888.69;5064414;27;99269;-72
2023/02/26 00:06:51;;;;;;;3.85;1.25;;;;;;;5.80;56.95;100891.34;5067213;27;99086;-71
2023/02/26 00:09:18;;;;;;;4.85;1.42;;;;;;;5.92;56.93;100897.31;5067063;27;98777;-72
2023/02/26 00:11:46;;;;;;;3.97;1.35;;;;;;;5.78;56.84;100907.09;5062541;27;97583;-70
2023/02/26 00:14:14;;;;;;;3.50;1.08;;;;;;;5.77;57.03;100902.75;5062873;27;99116;-70
2023/02/26 00:16:42;;;;;;;3.72;0.90;;;;;;;5.84;56.91;100911.41;5067434;27;100396;-71
2023/02/26 00:19:12;;;;;;;4.72;0.98;;;;;;;5.74;57.26;100907.16;5069061;27;96770;-71
2023/02/26 00:21:39;;;;;;;5.60;0.90;;;;;;;5.77;57.25;100921.13;5071038;27;98123;-72
2023/02/26 00:24:07;;;;;;;3.10;1.50;;;;;;;5.83;57.14;100922.78;5065625;27;99228;-72
2023/02/26 00:26:34;;;;;;;5.78;1.08;;;;;;;5.81;57.15;100924.56;5066149;27;101952;-71
2023/02/26 00:29:02;;;;;;;6.50;0.82;;;;;;;5.77;57.38;100935.97;5068138;27;98868;-71
2023/02/26 00:31:29;;;;;;;1.48;0.77;;;;;;;5.67;57.25;100937.84;5065020;27;96881;-71
2023/02/26 00:33:57;;;;;;;4.22;0.95;;;;;;;5.52;57.96;100941.50;5068061;27;99028;-71
2023/02/26 00:36:32;;;;;;;2.13;0.73;;;;;;;5.52;57.43;100941.50;5070001;27;99333;-73
2023/02/26 00:39:09;;;;;;;3.55;0.90;;;;;;;5.84;57.32;100946.34;5067733;27;97027;-71
2023/02/26 00:41:37;;;;;;;2.83;0.88;;;;;;;5.81;57.00;100949.03;5061389;27;97237;-72
2023/02/26 00:44:04;;;;;;;6.28;1.50;;;;;;;5.67;56.89;100950.06;5064652;27;99877;-71
2023/02/26 00:46:41;;;;;;;1.20;0.50;;;;;;;5.55;56.95;100953.72;5063778;27;101094;-71
2023/02/26 00:49:18;;;;;;;5.03;0.88;;;;;;;5.75;56.87;100951.72;5072170;27;96789;-71
2023/02/26 00:51:49;;;;;;;3.05;1.08;;;;;;;5.69;57.24;100954.44;5069073;27;97829;-71
2023/02/26 00:54:20;;;;;;;4.18;1.40;;;;;;;5.72;57.01;100961.38;5071326;27;98869;-72
2023/02/26 00:56:47;;;;;;;3.45;1.08;;;;;;;5.82;56.79;100968.25;5072711;27;100814;-71
2023/02/26 00:59:13;;;;;;;4.20;1.20;;;;;;;6.00;56.75;100968.03;5068713;27;97121;-72
2023/02/26 01:01:40;;;;;;;6.90;1.33;;;;;;;5.98;56.34;100969.81;5070197;27;98021;-71
2023/02/26 01:04:07;;;;;;;3.95;1.02;;;;;;;5.97;56.67;100974.19;5062083;27;99277;-71
2023/02/26 01:06:39;;;;;;;3.38;1.00;;;;;;;5.97;55.82;100970.72;5067561;27;98835;-71
2023/02/26 01:09:15;;;;;;;4.57;1.40;;;;;;;5.98;55.95;100975.91;5072266;27;97098;-70
2023/02/26 01:11:42;;;;;;;2.30;1.05;;;;;;;6.19;55.30;100974.78;5070760;27;97735;-70
2023/02/26 01:14:09;;;;;;;3.97;1.02;;;;;;;6.26;55.05;100980.81;5066772;27;100960;-69
2023/02/26 01:16:41;;;;;;;3.72;0.90;;;;;;;6.29;54.77;100978.16;5070594;27;99343;-69
2023/02/26 01:19:17;;;;;;;6.03;1.45;;;;;;;6.19;55.23;100985.25;5065411;27;96936;-69
2023/02/26 01:21:49;;;;;;;2.80;0.80;;;;;;;5.90;55.31;100980.41;5069147;27;98052;-70
2023/02/26 01:24:19;;;;;;;7.35;1.33;;;;;;;5.80;55.61;100991.88;5068363;27;99318;-70
2023/02/26 01:26:48;;;;;;;4.18;1.20;;;;;;;5.87;55.41;100987.41;5067251;27;98814;-70
2023/02/26 01:29:15;;;;;;;2.60;0.80;;;;;;;5.84;55.01;100992.72;5072925;27;98471;-71
2023/02/26 01:31:50;;;;;;;5.07;0.68;;;;;;;5.90;55.34;100998.78;5067741;27;97616;-70
2023/02/26 01:34:22;;;;;;;2.05;0.70;;;;;;;5.91;55.49;100992.63;5061704;27;98347;-71
2023/02/26 01:36:55;;;;;;;3.33;0.80;;;;;;;5.86;55.55;100991.78;5071011;27;98823;-71
2023/02/26 01:39:31;;;;;;;4.90;1.15;;;;;;;5.97;55.34;100989.91;5063993;27;97173;-71
2023/02/26 01:42:04;;;;;;;3.22;0.75;;;;;;;6.14;55.09;100991.47;5067501;27;97160;-70
2023/02/26 01:44:39;;;;;;;2.35;0.70;;;;;;;6.16;54.71;100994.94;5064943;27;99325;-71
2023/02/26 01:47:20;;;;;;;4.53;1.10;;;;;;;6.19;53.96;100989.63;5072460;27;99010;-70
2023/02/26 01:49:47;;;;;;;3.92;0.80;;;;;;;6.06;54.89;100998.56;5068515;27;97313;-71
2023/02/26 01:53:02;;;;;;;5.00;1.10;;;;;;;6.13;54.29;101005.47;5065585;27;97384;-70
2023/02/26 01:55:30;;;;;;;4.32;0.95;;;;;;;6.17;54.16;101007.19;5063433;27;99171;-71
2023/02/26 01:58:00;;;;;;;3.63;1.02;;;;;;;6.29;54.63;101013.13;5068032;27;99147;-70
2023/02/26 02:00:27;;;;;;;7.13;1.02;;;;;;;6.27;54.06;101008.78;5067682;27;96809;-71
2023/02/26 02:02:54;;;;;;;6.93;1.05;;;;;;;6.27;54.18;101014.91;5066689;27;97152;-70
2023/02/26 02:05:26;;;;;;;4.70;1.50;;;;;;;6.29;53.43;101017.50;5066932;27;99592;-70
2023/02/26 02:07:54;;;;;;;6.00;0.65;;;;;;;6.36;53.86;101021.78;5065663;27;98833;-70
2023/02/26 02:10:20;;;;;;;12.82;2.88;;;;;;;6.23;53.80;101022.84;5070016;27;97094;-70
2023/02/26 02:12:56;;;;;;;1.65;0.50;;;;;;;6.07;54.24;101022.16;5064597;27;97060;-70
2023/02/26 02:15:30;;;;;;;5.30;1.00;;;;;;;6.25;54.11;101032.41;5064323;27;99459;-70
2023/02/26 02:18:06;;;;;;;5.43;0.82;;;;;;;6.09;53.35;101033.50;5065214;27;99043;-70
2023/02/26 02:21:01;;;;;;;3.15;0.65;;;;;;;5.94;54.16;101036.31;5070043;27;97639;-70
2023/02/26 02:23:36;;;;;;;6.00;0.70;;;;;;;6.10;53.76;101051.00;5067732;27;98606;-71
2023/02/26 02:26:35;;;;;;;1.70;0.93;;;;;;;5.92;53.77;101056.44;5059093;27;99140;-71
2023/02/26 02:29:23;;;;;;;4.07;0.80;;;;;;;5.95;54.23;101059.91;5064715;27;97514;-72
2023/02/26 02:31:55;;;;;;;2.72;0.80;;;;;;;6.07;53.81;101058.03;5069249;27;97463;-71
2023/02/26 02:34:27;;;;;;;4.32;0.65;;;;;;;5.91;54.34;101066.06;5071053;27;98623;-72
2023/02/26 02:36:57;;;;;;;2.58;0.90;;;;;;;5.94;53.89;101066.03;5070264;27;98632;-72
2023/02/26 02:39:28;;;;;;;5.05;0.70;;;;;;;6.10;53.13;101060.63;5069758;27;98825;-71
2023/02/26 02:41:59;;;;;;;3.67;0.93;;;;;;;6.15;53.46;101064.06;5066893;27;97794;-71
2023/02/26 02:44:28;;;;;;;4.55;1.10;;;;;;;6.12;53.39;101071.94;5067918;27;97054;-71
2023/02/26 02:46:58;;;;;;;4.70;1.77;;;;;;;6.02;53.45;101067.72;5070563;27;99113;-70
2023/02/26 02:49:29;;;;;;;5.85;0.70;;;;;;;6.01;53.59;101072.09;5066384;27;99488;-70
2023/02/26 02:52:00;;;;;;;1.42;0.60;;;;;;;5.96;53.38;101080.03;5072929;27;96773;-70
2023/02/26 02:54:45;;;;;;;4.25;0.98;;;;;;;5.88;53.22;101079.22;5071123;27;97149;-71
2023/02/26 02:57:17;;;;;;;3.53;0.75;;;;;;;5.88;53.45;101089.72;5068366;27;99201;-71
2023/02/26 02:59:45;;;;;;;3.58;0.52;;;;;;;5.97;53.62;101083.50;5071067;27;99332;-69
2023/02/26 03:02:19;;;;;;;5.47;0.90;;;;;;;6.03;53.14;101088.69;5074830;27;96813;-69
2023/02/26 03:04:46;;;;;;;6.93;0.68;;;;;;;6.00;53.04;101093.94;5065293;27;97239;-69
2023/02/26 03:07:12;;;;;;;4.07;0.73;;;;;;;5.98;53.29;101090.47;5071257;27;99230;-70
2023/02/26 03:09:39;;;;;;;1.17;0.60;;;;;;;5.91;53.95;101088.78;5066646;27;99061;-70
2023/02/26 03:12:05;;;;;;;4.03;0.77;;;;;;;5.98;53.36;101091.34;5072410;27;97331;-70
2023/02/26 03:14:33;;;;;;;5.60;0.55;;;;;;;5.78;53.54;101106.38;5066572;27;97121;-70
2023/02/26 03:17:19;;;;;;;5.80;0.93;;;;;;;5.97;53.32;101104.50;5072528;27;99323;-70
2023/02/26 03:20:00;;;;;;;2.40;0.60;;;;;;;6.02;53.11;101110.56;5069106;27;98673;-70
2023/02/26 03:22:35;;;;;;;4.40;1.20;;;;;;;6.07;53.43;101111.38;5066639;27;97216;-70
2023/02/26 03:25:07;;;;;;;5.30;1.38;;;;;;;6.07;52.96;101121.00;5071115;27;96908;-71
2023/02/26 03:27:37;;;;;;;5.95;0.70;;;;;;;5.89;53.24;101122.94;5071863;27;97508;-72
2023/02/26 03:30:07;;;;;;;2.60;0.70;;;;;;;5.86;53.84;101122.91;5068577;27;98993;-70
2023/02/26 03:32:51;;;;;;;5.25;0.90;;;;;;;5.82;54.00;101123.84;5069848;27;98614;-70
2023/02/26 03:35:21;;;;;;;3.97;0.70;;;;;;;5.94;53.97;101130.75;5070265;27;97007;-71
2023/02/26 03:37:51;;;;;;;5.00;0.70;;;;;;;6.05;53.83;101128.00;5062819;27;99281;-70
2023/02/26 03:40:23;;;;;;;5.40;1.08;;;;;;;6.02;53.82;101139.41;5068783;27;99150;-71
2023/02/26 03:42:55;;;;;;;1.58;0.75;;;;;;;6.13;53.54;101136.66;5071048;27;97151;-70
2023/02/26 03:45:26;;;;;;;5.53;1.15;;;;;;;6.02;54.20;101144.66;5073175;27;97189;-70
2023/02/26 03:47:58;;;;;;;4.57;0.88;;;;;;;5.96;53.93;101156.09;5064410;27;99250;-71
2023/02/26 03:50:29;;;;;;;7.28;0.88;;;;;;;5.91;53.38;101152.63;5067294;27;99360;-70
2023/02/26 03:52:59;;;;;;;6.75;0.98;;;;;;;5.96;53.81;101168.34;5067685;27;97161;-70
2023/02/26 03:55:32;;;;;;;6.68;0.98;;;;;;;5.78;53.68;101166.69;5072609;27;96857;-70
2023/02/26 03:57:59;;;;;;;6.53;1.83;;;;;;;5.97;53.98;101172.69;5067679;27;99552;-73
2023/02/26 04:00:26;;;;;;;4.82;0.80;;;;;;;6.05;53.86;101176.09;5062477;27;98970;-71
2023/02/26 04:03:01;;;;;;;4.90;0.88;;;;;;;6.18;53.59;101182.06;5066953;27;98905;-71
2023/02/26 04:05:32;;;;;;;6.03;0.68;;;;;;;6.24;53.30;101189.88;5067474;27;97201;-72
2023/02/26 04:07:59;;;;;;;2.70;0.77;;;;;;;6.38;53.16;101196.72;5071317;27;99159;-71
2023/02/26 04:10:32;;;;;;;3.97;0.82;;;;;;;6.12;53.35;101185.63;5070488;27;99243;-72
2023/02/26 04:12:59;;;;;;;5.38;0.57;;;;;;;6.28;52.50;101188.97;5067255;27;97242;-72
2023/02/26 04:15:26;;;;;;;3.53;0.90;;;;;;;6.22;52.86;101199.53;5065979;27;97210;-72
2023/02/26 04:17:52;;;;;;;5.18;0.57;;;;;;;6.24;52.94;101203.00;5068763;27;98907;-71
2023/02/26 04:20:20;;;;;;;5.20;1.05;;;;;;;6.13;53.42;101207.50;5070713;27;99523;-72
2023/02/26 04:22:47;;;;;;;6.90;0.80;;;;;;;6.12;52.91;101209.25;5069467;27;97374;-71
2023/02/26 04:25:13;;;;;;;4.75;0.70;;;;;;;5.65;54.04;101212.25;5072523;27;97427;-71
2023/02/26 04:27:39;;;;;;;4.10;1.05;;;;;;;5.97;54.00;101210.25;5071895;27;99219;-71
2023/02/26 04:30:07;;;;;;;1.88;0.73;;;;;;;5.72;54.42;101218.31;5064462;27;98908;-72
2023/02/26 04:32:34;;;;;;;4.65;0.50;;;;;;;6.00;53.76;101218.13;5067332;27;97386;-73
2023/02/26 04:35:00;;;;;;;5.38;0.82;;;;;;;6.17;53.27;101222.34;5066044;27;96843;-73
2023/02/26 04:37:28;;;;;;;3.85;0.80;;;;;;;6.12;53.18;101214.50;5067313;27;98767;-72
2023/02/26 04:39:54;;;;;;;2.05;0.82;;;;;;;6.13;52.46;101220.63;5064050;27;98864;-72
2023/02/26 04:42:21;;;;;;;7.82;1.73;;;;;;;6.17;52.69;101230.22;5069184;27;97616;-73
2023/02/26 04:44:47;;;;;;;2.78;1.13;;;;;;;6.01;52.05;101232.09;5064305;27;96807;-73
2023/02/26 04:47:14;;;;;;;7.18;1.42;;;;;;;5.94;52.45;101239.16;5069015;27;101523;-72
2023/02/26 04:49:40;;;;;;;2.70;0.90;;;;;;;5.99;52.91;101241.72;5071427;27;98944;-72
2023/02/26 04:52:06;;;;;;;4.28;0.60;;;;;;;5.91;52.27;101246.16;5072376;27;97181;-72
2023/02/26 04:54:35;;;;;;;2.35;0.80;;;;;;;5.70;52.28;101247.22;5071573;27;96909;-72
2023/02/26 04:57:01;;;;;;;4.68;0.93;;;;;;;5.85;52.75;101248.81;5060483;27;99053;-70
2023/02/26 04:59:28;;;;;;;4.88;0.75;;;;;;;5.96;51.97;101252.28;5064946;27;99251;-72
2023/02/26 05:01:54;;;;;;;6.20;1.92;;;;;;;5.91;52.62;101256.66;5070893;27;97354;-72
2023/02/26 05:04:20;;;;;;;5.15;1.30;;;;;;;6.03;52.19;101266.22;5069102;27;98520;-71
2023/02/26 05:06:47;;;;;;;4.15;1.50;;;;;;;5.88;52.03;101254.97;5070963;27;97793;-70
2023/02/26 05:09:13;;;;;;;2.13;0.77;;;;;;;5.97;51.96;101264.50;5066889;27;99450;-70
2023/02/26 05:11:41;;;;;;;5.65;1.08;;;;;;;6.24;51.22;101271.22;5069907;27;97232;-70
2023/02/26 05:14:07;;;;;;;5.78;1.13;;;;;;;6.08;51.82;101280.16;5066832;27;96790;-70
2023/02/26 05:16:35;;;;;;;3.53;0.77;;;;;;;5.84;52.13;101289.06;5068205;27;100599;-71
2023/02/26 05:19:02;;;;;;;2.20;0.50;;;;;;;5.88;51.71;101283.81;5069942;27;97564;-70
2023/02/26 05:21:28;;;;;;;4.43;0.60;;;;;;;5.97;51.53;101286.34;5065095;27;96890;-71
2023/02/26 05:23:54;;;;;;;7.40;1.13;;;;;;;6.06;51.03;101282.78;5069889;27;97747;-72
2023/02/26 05:26:21;;;;;;;5.32;0.68;;;;;;;6.18;51.09;101294.91;5069257;27;98889;-71
2023/02/26 05:28:49;;;;;;;3.38;0.77;;;;;;;5.97;50.80;101299.44;5067788;27;98746;-72
2023/02/26 05:31:15;;;;;;;5.45;1.58;;;;;;;6.08;51.35;101302.00;5066737;27;97042;-70
2023/02/26 05:33:42;;;;;;;2.58;0.65;;;;;;;6.13;50.95;101296.72;5069747;27;96842;-70
2023/02/26 05:36:09;;;;;;;3.88;0.63;;;;;;;6.15;50.88;101302.81;5070629;27;100144;-71
2023/02/26 05:38:36;;;;;;;3.55;0.70;;;;;;;6.09;50.74;101305.50;5073120;27;97719;-71
2023/02/26 05:41:03;;;;;;;3.97;0.77;;;;;;;6.32;50.84;101316.66;5067024;27;97482;-70
2023/02/26 05:43:30;;;;;;;3.42;0.50;;;;;;;6.26;50.54;101317.59;5067964;27;97409;-71
2023/02/26 05:45:57;;;;;;;5.45;2.38;;;;;;;6.23;49.91;101319.38;5065216;27;98909;-71
2023/02/26 05:48:24;;;;;;;3.97;0.80;;;;;;;6.40;50.05;101322.72;5068939;27;99626;-72
2023/02/26 05:50:50;;;;;;;4.07;0.80;;;;;;;6.38;49.80;101329.72;5066629;27;96754;-71
2023/02/26 05:53:17;;;;;;;7.97;1.30;;;;;;;6.51;49.83;101328.72;5067861;27;98752;-71
2023/02/26 05:55:43;;;;;;;5.05;1.33;;;;;;;6.44;49.47;101339.28;5070933;27;98884;-72
2023/02/26 05:58:09;;;;;;;2.45;1.20;;;;;;;6.47;50.01;101334.91;5068871;27;99054;-72
2023/02/26 06:00:36;;;;;;;4.47;0.50;;;;;;;6.46;49.87;101341.03;5063741;27;96766;-71
2023/02/26 06:03:05;;;;;;;2.25;1.23;;;;;;;6.57;49.45;101344.41;5065841;27;97244;-72
2023/02/26 06:05:31;;;;;;;4.90;1.20;;;;;;;6.55;49.35;101340.97;5065334;27;100284;-73
2023/02/26 06:07:57;;;;;;;5.15;1.20;;;;;;;6.61;49.16;101354.03;5069793;27;99623;-71
2023/02/26 06:10:24;;;;;;;2.95;1.27;;;;;;;6.58;48.95;101346.16;5069553;27;97840;-71
2023/02/26 06:12:50;;;;;;;7.07;1.10;;;;;;;6.50;49.46;101357.66;5071996;27;99163;-72
2023/02/26 06:15:16;;;;;;;5.95;0.93;;;;;;;6.39;49.53;101357.72;5073776;27;98909;-71
2023/02/26 06:17:43;;;;;;;4.53;0.95;;;;;;;6.40;49.66;101360.34;5069541;27;98930;-70
2023/02/26 06:20:12;;;;;;;4.03;1.00;;;;;;;6.64;48.98;101369.75;5072405;27;97068;-71
2023/02/26 06:22:39;;;;;;;7.75;2.63;;;;;;;6.45;48.94;101370.78;5065216;27;97040;-71
2023/02/26 06:25:06;;;;;;;4.82;0.73;;;;;;;6.63;48.92;101375.03;5066038;27;99273;-72
2023/02/26 06:27:32;;;;;;;12.35;4.40;;;;;;;6.85;48.29;101383.53;5071069;27;98827;-71
2023/02/26 06:29:59;;;;;;;4.93;1.17;;;;;;;6.82;48.38;101387.09;5070042;27;96912;-71
2023/02/26 06:32:25;;;;;;;2.10;1.25;;;;;;;6.73;48.83;101382.78;5066828;27;97325;-70
2023/02/26 06:34:51;;;;;;;6.65;1.85;;;;;;;6.81;48.43;101395.84;5067511;27;101225;-71
2023/02/26 06:37:19;;;;;;;2.20;1.10;;;;;;;6.78;48.08;101391.50;5065005;27;98843;-70
2023/02/26 06:39:45;;;;;;;5.45;1.17;;;;;;;6.51;49.14;101397.00;5069604;27;96841;-71
2023/02/26 06:42:12;;;;;;;5.35;1.00;;;;;;;6.54;48.61;101406.59;5060460;27;97697;-71
2023/02/26 06:44:38;;;;;;;2.58;0.73;;;;;;;6.83;48.19;101409.81;5074832;27;98872;-72
2023/02/26 06:47:05;;;;;;;5.82;1.10;;;;;;;6.86;48.02;101414.19;5072469;27;98868;-71
2023/02/26 06:49:31;;;;;;;2.95;1.00;;;;;;;6.96;47.89;101415.81;5074561;27;96760;-72
2023/02/26 06:51:58;;;;;;;5.07;1.70;;;;;;;6.85;48.05;101417.69;5072911;27;97118;-70
2023/02/26 06:54:25;;;;;;;4.50;1.10;;;;;;;7.04;47.72;101408.75;5074444;27;101117;-72
2023/02/26 06:56:56;;;;;;;2.85;0.88;;;;;;;7.07;47.18;101425.38;5074282;27;99463;-72
2023/02/26 06:59:23;;;;;;;4.00;0.95;;;;;;;7.20;46.91;101426.97;5067114;27;98495;-71
2023/02/26 07:01:49;;;;;;;5.30;0.70;;;;;;;7.10;46.82;101445.47;5074089;27;97310;-71
2023/02/26 07:04:15;;;;;;;1.70;0.60;;;;;;;6.96;47.03;101444.72;5070650;27;98896;-71
2023/02/26 07:06:42;;;;;;;4.70;1.00;;;;;;;6.91;47.40;101447.41;5072984;27;99070;-71
2023/02/26 07:09:08;;;;;;;5.10;1.38;;;;;;;6.95;47.68;101449.16;5074099;27;96990;-71
2023/02/26 07:11:36;;;;;;;3.00;0.95;;;;;;;7.05;47.28;101452.53;5064441;27;96919;-72
2023/02/26 07:14:03;;;;;;;1.60;0.52;;;;;;;6.96;47.38;101452.63;5068969;27;98917;-73
2023/02/26 07:16:29;;;;;;;4.07;0.85;;;;;;;6.65;48.05;101467.78;5070943;27;98891;-72
2023/02/26 07:18:55;;;;;;;3.92;1.00;;;;;;;6.55;47.95;101469.63;5065330;27;97772;-71
2023/02/26 07:21:22;;;;;;;4.28;0.85;;;;;;;6.69;47.72;101474.78;5070181;27;97017;-72
2023/02/26 07:23:48;;;;;;;5.90;1.33;;;;;;;6.60;47.91;101483.59;5066021;27;99481;-72
2023/02/26 07:26:16;;;;;;;3.80;1.75;;;;;;;6.79;47.62;101487.81;5068127;27;99037;-69
2023/02/26 07:28:44;;;;;;;2.55;1.33;;;;;;;6.56;47.55;101484.50;5070148;27;96763;-70
2023/02/26 07:31:10;;;;;;;4.13;1.50;;;;;;;6.67;47.62;101485.28;5062954;27;98519;-71
2023/02/26 07:33:38;;;;;;;6.28;1.48;;;;;;;6.77;47.46;101486.94;5063347;27;99039;-69
2023/02/26 07:36:05;;;;;;;4.20;1.13;;;;;;;6.82;47.55;101501.81;5066528;27;98961;-70
2023/02/26 07:38:31;;;;;;;6.63;2.35;;;;;;;6.85;47.47;101501.75;5069618;27;96968;-69
2023/02/26 07:40:58;;;;;;;4.78;1.50;;;;;;;6.86;47.37;101503.50;5065362;27;97198;-70
2023/02/26 07:43:24;;;;;;;8.98;1.95;;;;;;;6.89;47.39;101508.75;5064907;27;98953;-70
2023/02/26 07:45:53;;;;;;;9.60;3.05;;;;;;;6.93;47.19;101511.34;5069375;27;98882;-71
2023/02/26 07:48:20;;;;;;;6.10;1.45;;;;;;;7.03;46.85;101514.75;5067227;27;96988;-71
2023/02/26 07:50:47;;;;;;;6.10;0.90;;;;;;;7.19;46.91;101519.88;5064346;27;102097;-70
2023/02/26 07:53:13;;;;;;;1.85;0.75;;;;;;;7.05;46.45;101516.47;5070192;27;99381;-71
2023/02/26 07:55:39;;;;;;;5.88;1.20;;;;;;;6.74;47.15;101529.00;5067853;27;98873;-70
2023/02/26 07:58:06;;;;;;;3.53;1.00;;;;;;;6.59;47.25;101528.22;5060865;27;96890;-69
2023/02/26 08:00:33;;;;;;;4.75;1.33;;;;;;;6.62;47.37;101522.97;5062311;27;97188;-69
2023/02/26 08:03:00;;;;;;;5.50;1.80;;;;;;;6.72;47.11;101528.13;5057822;27;99095;-69
2023/02/26 08:05:27;;;;;;;5.22;2.22;;;;;;;6.86;46.75;101540.28;5060953;27;98892;-70
2023/02/26 08:07:53;;;;;;;4.15;0.95;;;;;;;6.91;46.95;101541.13;5064479;27;96949;-68
2023/02/26 08:10:20;;;;;;;2.92;1.23;;;;;;;7.07;46.26;101546.25;5065105;27;97815;-69
2023/02/26 08:12:46;;;;;;;3.90;1.35;;;;;;;6.88;46.26;101552.53;5066560;27;100899;-69
2023/02/26 08:15:13;;;;;;;7.47;1.75;;;;;;;6.82;46.40;101552.59;5064159;27;100446;-68
2023/02/26 08:17:40;;;;;;;5.03;1.52;;;;;;;6.74;47.28;101559.66;5069225;27;97667;-70
2023/02/26 08:20:10;;;;;;;6.93;1.40;;;;;;;7.01;46.44;101553.31;5068956;27;98794;-70
2023/02/26 08:22:37;;;;;;;2.90;1.10;;;;;;;7.27;46.09;101561.84;5063814;27;98881;-70
2023/02/26 08:25:04;;;;;;;4.45;1.20;;;;;;;7.36;45.65;101561.75;5069689;27;99505;-70
2023/02/26 08:27:31;;;;;;;7.50;2.50;;;;;;;7.26;45.44;101573.25;5065529;27;96897;-68
2023/02/26 08:29:57;;;;;;;5.22;1.90;;;;;;;7.11;46.27;101569.00;5064097;27;96836;-70
2023/02/26 08:32:25;;;;;;;5.20;2.58;;;;;;;7.03;45.87;101576.06;5062989;27;98868;-69
2023/02/26 08:34:52;;;;;;;3.63;1.13;;;;;;;7.29;45.86;101573.22;5061567;27;99250;-69
2023/02/26 08:37:23;;;;;;;7.43;1.42;;;;;;;7.34;45.14;101581.94;5066170;27;96753;-70
2023/02/26 08:39:49;;;;;;;2.58;0.70;;;;;;;7.47;44.88;101572.19;5064500;27;98890;-70
2023/02/26 08:42:16;;;;;;;3.47;0.98;;;;;;;7.22;45.01;101585.53;5067368;27;99034;-69
2023/02/26 08:44:42;;;;;;;4.25;1.30;;;;;;;7.35;44.80;101586.28;5065793;27;98939;-68
2023/02/26 08:47:09;;;;;;;4.13;1.17;;;;;;;7.49;44.67;101580.91;5069902;27;98649;-68
2023/02/26 08:49:35;;;;;;;3.35;0.70;;;;;;;7.75;44.72;101599.06;5065532;27;99440;-69
2023/02/26 08:52:02;;;;;;;3.85;1.40;;;;;;;7.91;44.50;101598.03;5059622;27;98873;-69
2023/02/26 08:54:30;;;;;;;4.20;1.25;;;;;;;8.12;43.37;101605.69;5059228;27;98945;-70
2023/02/26 08:56:56;;;;;;;4.90;1.05;;;;;;;8.27;43.32;101597.56;5067077;27;97336;-69
2023/02/26 08:59:23;;;;;;;3.10;0.70;;;;;;;8.37;43.00;101612.41;5065796;27;96845;-70
2023/02/26 09:01:49;;;;;;;2.70;0.80;;;;;;;8.31;42.74;101607.22;5064255;27;101314;-70
2023/02/26 09:04:16;;;;;;;2.60;0.80;;;;;;;8.31;43.03;101606.34;5061126;27;99274;-70
2023/02/26 09:06:43;;;;;;;6.20;0.95;;;;;;;8.21;43.12;101610.81;5067693;27;97810;-70
2023/02/26 09:09:09;;;;;;;4.95;0.77;;;;;;;8.13;43.25;101612.69;5065767;27;98931;-70
2023/02/26 09:11:37;;;;;;;2.35;0.80;;;;;;;8.12;43.19;101610.94;5067643;27;99260;-71
2023/02/26 09:14:04;;;;;;;5.85;1.42;;;;;;;8.06;43.37;101613.66;5062043;27;98417;-72
2023/02/26 09:16:34;;;;;;;4.65;0.93;;;;;;;8.25;43.43;101617.81;5056052;27;97470;-72
2023/02/26 09:19:04;;;;;;;3.22;1.20;;;;;;;8.33;42.73;101621.25;5068791;27;97261;-71
2023/02/26 09:21:31;;;;;;;2.65;0.65;;;;;;;8.25;42.89;101630.97;5066771;27;98874;-70
2023/02/26 09:23:57;;;;;;;3.17;0.77;;;;;;;8.21;42.70;101633.63;5066486;27;99107;-70
2023/02/26 09:26:24;;;;;;;3.03;0.75;;;;;;;8.28;42.38;101635.31;5067410;27;96978;-71
2023/02/26 09:28:52;;;;;;;3.88;0.70;;;;;;;8.20;41.76;101640.69;5067922;27;96919;-70
2023/02/26 09:31:18;;;;;;;4.38;1.10;;;;;;;8.23;42.43;101645.91;5065120;27;99415;-70
2023/02/26 09:33:45;;;;;;;2.55;0.80;;;;;;;8.12;42.45;101654.81;5061659;27;99351;-71
2023/02/26 09:36:11;;;;;;;5.93;0.95;;;;;;;8.17;42.55;101661.78;5064758;27;97018;-71
2023/02/26 09:38:38;;;;;;;3.67;0.60;;;;;;;8.54;41.70;101662.22;5069276;27;97718;-70
2023/02/26 09:41:06;;;;;;;2.03;0.57;;;;;;;8.57;40.83;101664.84;5064677;27;98493;-72
2023/02/26 09:43:59;;;;;;;3.42;0.80;;;;;;;8.73;40.88;101668.13;5064123;27;99354;-71
2023/02/26 09:46:37;;;;;;;2.75;0.63;;;;;;;8.78;40.62;101672.47;5066610;27;96868;-70
2023/02/26 09:49:15;;;;;;;6.80;2.25;;;;;;;8.82;40.50;101672.41;5064560;27;97759;-71
2023/02/26 09:51:43;;;;;;;6.28;1.00;;;;;;;8.93;40.18;101676.66;5057928;27;99044;-70
2023/02/26 09:54:17;;;;;;;4.03;1.15;;;;;;;9.01;39.89;101685.31;5065982;27;100675;-71
2023/02/26 09:56:44;;;;;;;2.35;0.73;;;;;;;8.94;39.83;101675.75;5069255;27;96873;-73
2023/02/26 09:59:12;;;;;;;4.38;0.75;;;;;;;9.13;39.61;101681.63;5060046;27;97666;-71
2023/02/26 10:01:46;;;;;;;3.00;0.70;;;;;;;9.33;39.54;101683.97;5061719;27;97807;-71
2023/02/26 10:04:22;;;;;;;4.47;0.60;;;;;;;9.73;39.38;101692.13;5059856;27;100953;-72
2023/02/26 10:07:03;;;;;;;3.72;0.80;;;;;;;9.75;38.82;101693.84;5052743;27;101567;-71
2023/02/26 10:09:41;;;;;;;5.35;1.80;;;;;;;9.58;38.67;101698.53;5062397;27;99163;-70
2023/02/26 10:12:12;;;;;;;2.75;0.95;;;;;;;9.59;38.70;101698.50;5059522;27;98797;-71
2023/02/26 10:14:47;;;;;;;3.42;0.57;;;;;;;9.12;38.24;101704.50;5061341;27;98863;-72
2023/02/26 10:17:20;;;;;;;2.47;0.65;;;;;;;8.84;38.85;101702.28;5066990;27;96799;-73
2023/02/26 10:19:53;;;;;;;3.00;0.90;;;;;;;9.05;38.84;101707.25;5066776;27;98147;-71
2023/02/26 10:22:27;;;;;;;6.22;1.90;;;;;;;9.11;38.61;101712.44;5065615;27;98864;-70
2023/02/26 10:25:00;;;;;;;5.68;1.55;;;;;;;9.06;38.33;101715.13;5051325;27;98962;-71
2023/02/26 10:27:42;;;;;;;4.10;0.85;;;;;;;8.89;37.86;101725.03;5063840;27;97109;-73
2023/02/26 10:30:16;;;;;;;2.92;0.60;;;;;;;8.59;37.31;101723.66;5062193;27;96868;-72
2023/02/26 10:33:02;;;;;;;2.92;0.60;;;;;;;8.61;38.21;101721.00;5057868;27;98952;-72
2023/02/26 10:35:36;;;;;;;1.77;0.60;;;;;;;8.73;38.32;101726.97;5062672;27;99166;-71
2023/02/26 10:38:08;;;;;;;6.45;2.25;;;;;;;8.80;36.74;101727.78;5065917;27;96806;-72
2023/02/26 10:40:44;;;;;;;2.55;0.77;;;;;;;8.63;36.84;101728.00;5059923;27;97178;-73
2023/02/26 10:43:16;;;;;;;3.25;0.52;;;;;;;8.94;37.58;101728.47;5053631;27;98567;-73
2023/02/26 10:45:53;;;;;;;5.38;0.77;;;;;;;9.12;36.86;101728.22;5059174;27;98825;-73
2023/02/26 10:48:33;;;;;;;4.95;0.50;;;;;;;8.85;36.48;101736.53;5061665;27;97607;-73
2023/02/26 10:51:06;;;;;;;1.90;0.70;;;;;;;9.18;36.50;101733.44;5059870;27;96728;-71
2023/02/26 10:53:33;;;;;;;2.58;0.63;;;;;;;9.03;36.11;101740.66;5066583;27;99028;-73
2023/02/26 10:56:05;;;;;;;3.20;0.95;;;;;;;8.88;35.86;101741.72;5064481;27;98931;-74
2023/02/26 10:58:32;;;;;;;2.15;0.60;;;;;;;8.58;36.72;101739.47;5065352;27;97134;-72
2023/02/26 11:00:59;;;;;;;3.92;0.47;;;;;;;8.89;36.90;101743.47;5068050;27;96914;-73
2023/02/26 11:03:32;;;;;;;5.75;0.98;;;;;;;8.88;35.52;101736.47;5062831;27;99978;-73
2023/02/26 11:06:03;;;;;;;2.58;0.82;;;;;;;8.86;35.74;101750.56;5069770;27;98839;-72
2023/02/26 11:08:34;;;;;;;3.22;0.52;;;;;;;8.86;35.42;101743.50;5069925;27;97309;-74
2023/02/26 11:11:02;;;;;;;2.45;0.60;;;;;;;8.77;34.94;101748.91;5064130;27;97345;-73
2023/02/26 11:13:32;;;;;;;7.53;2.05;;;;;;;8.90;35.11;101750.50;5066845;27;98893;-73
2023/02/26 11:16:03;;;;;;;4.10;0.50;;;;;;;9.24;34.52;101755.34;5068688;27;99681;-72
2023/02/26 11:18:32;;;;;;;3.65;0.68;;;;;;;9.18;34.06;101756.28;5059877;27;97570;-72
2023/02/26 11:21:00;;;;;;;3.53;0.60;;;;;;;8.99;34.77;101760.06;5062546;27;97257;-72
2023/02/26 11:24:02;;;;;;;3.83;0.43;;;;;;;9.01;34.15;101759.13;5065071;27;99084;-74
2023/02/26 11:26:36;;;;;;;9.95;3.10;;;;;;;9.32;34.50;101761.38;5067647;27;100305;-72
2023/02/26 11:29:03;;;;;;;1.38;0.82;;;;;;;9.48;34.68;101760.25;5066626;27;98533;-72
2023/02/26 11:31:32;;;;;;;2.00;0.50;;;;;;;9.18;35.03;101775.63;5070293;27;97094;-73
2023/02/26 11:34:02;;;;;;;1.67;0.82;;;;;;;9.09;35.58;101774.88;5068004;27;98234;-71
2023/02/26 11:36:31;;;;;;;2.35;0.65;;;;;;;8.54;36.85;101777.28;5062925;27;98200;-71
2023/02/26 11:39:02;;;;;;;1.48;0.50;;;;;;;8.70;36.75;101785.00;5065045;27;98894;-70
2023/02/26 11:41:29;;;;;;;3.78;0.60;;;;;;;8.60;36.25;101783.34;5059545;27;99089;-70
2023/02/26 11:44:01;;;;;;;4.63;0.70;;;;;;;8.76;36.44;101794.59;5055007;27;100895;-70